Tiempo atmosférico en la estación meteorológica de El Maíllo, Salamanca (1027 m.)



Fecha
DESCASC
Temp. máxima en grados centígrados (hora)
DESCASC
Temp. mínima en grados centígrados (hora)
DESCASC
Temp. media en grados centígrados
DESCASC
Racha de viento máxima en m/sg (hora)
DESCASC
Velocidad máxima media en intervalos de 10 minutos(hora)
DESCASC
Precipitaciones diarias en mm
DESCASC
Precipitaciones de 00:00 a 06:00 en mm
DESCASC
Precipitaciones de 06:00 a 12:00 en mm
DESCASC
Precipitaciones de 12:00 a 18:00 en mm
DESCASC
Precipitaciones de 18:00 a 24:00 en mm
DESCASC
02-08-2020 28.3 (17:20) 12 (07:20) 20.1 8.33 (19:10) 4.72 (20:20) 0 0 0 0 0
01-08-2020 30.3 (18:20) 13 (07:20) 21.6 10 (17:40) 6.11 (16:20) 0 0 0 0 0
31-07-2020 33.6 (17:50) 16.7 (07:00) 25.1 11.67 (17:20) 5.83 (09:30) 0 0 0 0 0
30-07-2020 32.2 (16:10) 19.3 (00:00) 25.8 15 (16:20) 8.61 (11:10) 0 0 0 0 0
29-07-2020 34.3 (17:00) 16.3 (00:00) 25.3 8.89 (14:10) 5.28 (14:20) 0 0 0 0 0
28-07-2020 32.3 (18:00) 16.1 (07:40) 24.2 8.89 (15:20) 5 (15:20) 0 0 0 0 0
27-07-2020 33.9 (15:50) 17.2 (00:00) 25.6 10.28 (16:20) 6.39 (16:30) 0 0 0 0 0
26-07-2020 33.1 (18:00) 13.4 (00:00) 23.2 6.67 (18:20) 5 (22:10) 0 0 0 0 0
25-07-2020 31.6 (17:10) 14.1 (07:30) 22.9 10.83 (14:50) 6.11 (15:20) 0 0 0 0 0
24-07-2020 31.3 (17:10) 14.3 (00:00) 22.8 10.28 (16:10) 4.44 (07:10) 0 0 0 0 0
23-07-2020 32.3 (18:00) 16.5 (00:00) 24.4 8.89 (19:40) 5.83 (19:10) 0 0 0 0 0
22-07-2020 30 (19:10) 15.4 (05:10) 22.7 13.33 (00:20) 8.89 (00:10) 2.4 2.4 0 0 0
21-07-2020 27.3 (13:40) 17.5 (00:00) 22.4 16.94 (21:20) 11.39 (21:00) 1.6 0 0 0 1.6
20-07-2020 33 (18:10) 14.8 (07:30) 23.9 12.22 (14:50) 5.83 (14:30) 0 0 0 0 0
19-07-2020 32.1 (16:40) 17.6 (00:00) 24.8 11.39 (11:10) 7.22 (10:40) 0 0 0 0 0
18-07-2020 32.7 (15:50) 19.5 (00:00) 26.1 9.72 (03:10) 5.83 (03:10) 0 0 0 0 0
17-07-2020 31.3 (17:50) 18.6 (00:00) 24.9 8.61 (00:50) 6.11 (00:50) 0 0 0 0 0
16-07-2020 31.6 (18:20) 17.6 (00:00) 24.6 8.89 (00:30) 6.11 (03:10) 0 0 0 0 0
15-07-2020 29.1 (17:10) 12.1 (07:00) 20.6 10.83 (00:40) 6.67 (11:00) 0 0 0 0 0
14-07-2020 28.7 (17:50) 15.7 (00:00) 22.2 10.28 (17:40) 6.11 (02:00) 0 0 0 0 0
13-07-2020 29.2 (17:50) 14.1 (07:20) 21.7 8.61 (17:10) 4.44 (19:30) 0 0 0 0 0
12-07-2020 27.1 (18:10) 15.8 (05:50) 21.5 8.06 (09:00) 5.83 (09:00) 0 0 0 0 0
11-07-2020 32.4 (16:30) 15.2 (07:30) 23.8 20.56 (21:20) 12.78 (21:20) 0 0 0 0 0
10-07-2020 30.7 (17:30) 14.4 (00:00) 22.6 8.33 (16:10) 4.17 (04:10) 0 0 0 0 0
09-07-2020 30.7 (17:10) 14.1 (03:30) 22.4 9.72 (05:10) 6.11 (05:10) 0 0 0 0 0
08-07-2020 31.8 (17:20) 19.2 (06:30) 25.5 12.5 (14:30) 7.78 (14:00) 0 0 0 0 0

Gráficas

Temp. máximas Temp. mínimas Temp. medias Precipitaciones Rachas de viento máximas Velocidades máximas media en intervalos de 10 minutos

Datos horarios

Fecha y hora oficial Temperatura (ºC) Velocidad del viento (km/h) Dirección del viento Racha (km/h) Dirección de racha Precipitación (mm) Presión (hPa) Tendencia (hPa) Humedad (%)
2020-08-06 23:00:00 22.9 16 Sur 18 Sudeste 0 -- -- 43
2020-08-06 22:00:00 25.7 7 Sur 15 Sur 0 -- -- 38
2020-08-06 21:00:00 30.6 9 Sur 26 Sur 0 -- -- 28
2020-08-06 20:00:00 32.2 13 Sudoeste 35 Sudoeste 0 -- -- 26
2020-08-06 19:00:00 33.2 22 Sur 41 Sudeste 0 -- -- 23
2020-08-06 18:00:00 33.9 19 Sur 42 Sur 0 -- -- 24
2020-08-06 17:00:00 33.7 11 Sur 44 Sudoeste 0 -- -- 28
2020-08-06 16:00:00 33 23 Sudeste 50 Sudeste 0 -- -- 27
2020-08-06 15:00:00 32.6 26 Sur 49 Sur 0 -- -- 28
2020-08-06 14:00:00 31.9 21 Sudeste 41 Sudeste 0 -- -- 28
2020-08-06 13:00:00 31.3 15 Sur 40 Sur 0 -- -- 30
2020-08-06 12:00:00 31.1 15 Sudeste 28 Sur 0 -- -- 29
2020-08-06 11:00:00 30.4 8 Sudeste 26 Sudeste 0 -- -- 29
2020-08-06 10:00:00 29.3 15 Sudeste 29 Sudeste 0 -- -- 29
2020-08-06 09:00:00 24.9 15 Sudeste 20 Sur 0 -- -- 36
2020-08-06 08:00:00 21.9 14 Sudeste 19 Sudeste 0 -- -- 39
2020-08-06 07:00:00 21.8 15 Sudeste 21 Sur 0 -- -- 38
2020-08-06 06:00:00 22.2 13 Sudeste 17 Sur 0 -- -- 36
2020-08-06 05:00:00 20.8 10 Sudeste 13 Sudeste 0 -- -- 39
2020-08-06 04:00:00 20.1 4 Sur 12 Sur 0 -- -- 40
2020-08-06 03:00:00 22.1 7 Sudeste 19 Sudeste 0 -- -- 38
2020-08-06 02:00:00 20.6 9 Este 14 Sudeste 0 -- -- 40
2020-08-06 01:00:00 20.8 9 Sudeste 18 Sudeste 0 -- -- 41
2020-08-06 00:00:00 21.9 10 Sudeste 17 Sur 0 -- -- 39
2020-08-05 23:00:00 22.7 5 Sur 19 Sur 0 -- -- 37
2020-08-05 22:00:00 24.3 12 Sur 14 Sur 0 -- -- 36
2020-08-05 21:00:00 30.7 9 Sudeste 15 Sudeste 0 -- -- 26
2020-08-05 20:00:00 31.9 9 Este 16 Este 0 -- -- 24
2020-08-05 19:00:00 32.4 6 Norte 22 Nordeste 0 -- -- 23
2020-08-05 18:00:00 33.4 10 Oeste 24 Oeste 0 -- -- 22
2020-08-05 17:00:00 32.6 7 Noroeste 31 Norte 0 -- -- 23
2020-08-05 16:00:00 32.1 8 Norte 27 Norte 0 -- -- 25
2020-08-05 15:00:00 31.2 12 Noroeste 26 Noroeste 0 -- -- 26
2020-08-05 14:00:00 30.5 11 Oeste 21 Oeste 0 -- -- 28
2020-08-05 13:00:00 29.7 10 Norte 18 Nordeste 0 -- -- 28
2020-08-05 12:00:00 28.8 6 Este 18 Este 0 -- -- 29
2020-08-05 11:00:00 27.1 9 Este 19 Este 0 -- -- 32
2020-08-05 10:00:00 26.2 10 Este 18 Este 0 -- -- 33
2020-08-05 09:00:00 24.7 9 Este 15 Sudeste 0 -- -- 36
2020-08-05 08:00:00 16.5 8 Sudeste 15 Este 0 -- -- 56
2020-08-05 07:00:00 20.4 11 Este 16 Este 0 -- -- 42
2020-08-05 06:00:00 21.1 12 Este 17 Este 0 -- -- 39
2020-08-05 05:00:00 21 13 Este 17 Este 0 -- -- 38
2020-08-05 04:00:00 16.3 8 Sudeste 15 Sur 0 -- -- 45
2020-08-05 03:00:00 16.9 10 Sudeste 15 Este 0 -- -- 47
2020-08-05 02:00:00 21.3 12 Este 19 Este 0 -- -- 38
2020-08-05 01:00:00 21 11 Este 22 Este 0 -- -- 40
2020-08-05 00:00:00 21 13 Este 17 Este 0 -- -- 39
2020-08-04 23:00:00 21.2 10 Este 11 Este 0 -- -- 38
2020-08-04 22:00:00 23.5 5 Este 20 Nordeste 0 -- -- 35
2020-08-04 21:00:00 28.1 8 Norte 18 Noroeste 0 -- -- 28
2020-08-04 20:00:00 29.2 10 Norte 36 Sudoeste 0 -- -- 24
2020-08-04 19:00:00 29.8 6 Nordeste 21 Oeste 0 -- -- 25
2020-08-04 18:00:00 30 10 Noroeste 23 Norte 0 -- -- 26
2020-08-04 17:00:00 29.4 11 Norte 26 Norte 0 -- -- 28
2020-08-04 16:00:00 29.2 9 Norte 22 Noroeste 0 -- -- 29
2020-08-04 15:00:00 28.4 8 Nordeste 23 Norte 0 -- -- 31
2020-08-04 14:00:00 27.6 12 Noroeste 24 Oeste 0 -- -- 32
2020-08-04 13:00:00 26.5 9 Noroeste 18 Noroeste 0 -- -- 34
2020-08-04 12:00:00 25.1 9 Norte 15 Norte 0 -- -- 39
2020-08-04 11:00:00 23.6 6 Norte 13 Nordeste 0 -- -- 43
2020-08-04 10:00:00 19.8 2 Norte 9 Noroeste 0 -- -- 57
2020-08-04 09:00:00 16.9 4 Oeste 12 Sur 0 -- -- 69
2020-08-04 08:00:00 15.8 11 Este 19 Este 0 -- -- 64
2020-08-04 07:00:00 12.1 5 Sudeste 8 Este 0 -- -- 83
2020-08-04 06:00:00 12.3 6 Sudeste 11 Sur 0 -- -- 83
2020-08-04 05:00:00 13.4 10 Sur 13 Sudeste 0 -- -- 79
2020-08-04 04:00:00 13.9 8 Sur 13 Sur 0 -- -- 75
2020-08-04 03:00:00 15.2 10 Sur 16 Sur 0 -- -- 72
2020-08-04 02:00:00 15.7 10 Sur 16 Sudeste 0 -- -- 68
2020-08-04 01:00:00 16.2 8 Sur 12 Sur 0 -- -- 62
2020-08-04 00:00:00 17.4 7 Sur 15 Sur 0 -- -- 53
2020-08-03 23:00:00 18.3 12 Sur 14 Sudeste 0 -- -- 50
2020-08-03 22:00:00 21.7 5 Sur 19 Noroeste 0 -- -- 42
2020-08-03 21:00:00 24.8 14 Noroeste 25 Noroeste 0 -- -- 38
2020-08-03 20:00:00 26.8 14 Noroeste 23 Noroeste 0 -- -- 31
2020-08-03 19:00:00 28 5 Noroeste 20 Noroeste 0 -- -- 29
2020-08-03 18:00:00 28 9 Noroeste 22 Oeste 0 -- -- 29
2020-08-03 17:00:00 27.6 7 Nordeste 26 Noroeste 0 -- -- 31
2020-08-03 16:00:00 26.6 9 Norte 29 Noroeste 0 -- -- 33
2020-08-03 15:00:00 25.9 11 Nordeste 24 Nordeste 0 -- -- 34
2020-08-03 14:00:00 24.4 12 Este 26 Nordeste 0 -- -- 39
2020-08-03 13:00:00 23.4 14 Nordeste 28 Este 0 -- -- 42
2020-08-03 12:00:00 22.1 15 Nordeste 26 Nordeste 0 -- -- 45
2020-08-03 11:00:00 20.4 15 Nordeste 22 Nordeste 0 -- -- 48
2020-08-03 10:00:00 18.2 9 Nordeste 14 Norte 0 -- -- 58
2020-08-03 09:00:00 14.4 4 Nordeste 8 Nordeste 0 -- -- 73
2020-08-03 08:00:00 11.5 4 Sudeste 9 Sudeste 0 -- -- 72
2020-08-03 07:00:00 12.1 9 Sudeste 14 Sur 0 -- -- 67
2020-08-03 06:00:00 13.3 7 Sur 13 Sur 0 -- -- 61
2020-08-03 05:00:00 14.4 8 Sur 13 Sur 0 -- -- 57
2020-08-03 04:00:00 15 8 Sur 13 Sur 0 -- -- 55
2020-08-03 03:00:00 14.8 8 Sur 15 Sur 0 -- -- 55
2020-08-03 02:00:00 15.4 11 Sur 13 Sur 0 -- -- 51
2020-08-03 01:00:00 16.6 5 Sur 12 Sur 0 -- -- 44
2020-08-03 00:00:00 17.6 7 Sur 11 Sur 0 -- -- 43
2020-08-02 23:00:00 20 3 Sudoeste 13 Noroeste 0 -- -- 36
2020-08-02 22:00:00 22.5 10 Noroeste 30 Noroeste 0 -- -- 32
2020-08-02 21:00:00 25 14 Noroeste 26 Noroeste 0 -- -- 37
2020-08-02 20:00:00 27.1 15 Noroeste 30 Noroeste 0 -- -- 31
2020-08-02 19:00:00 28.1 8 Noroeste 24 Norte 0 -- -- 27
2020-08-02 18:00:00 27.7 10 Norte 25 Noroeste 0 -- -- 31
2020-08-02 17:00:00 27.8 15 Noroeste 25 Noroeste 0 -- -- 31
2020-08-02 16:00:00 28.2 11 Norte 25 Norte 0 -- -- 30
2020-08-02 15:00:00 27 15 Noroeste 27 Noroeste 0 -- -- 33
2020-08-02 14:00:00 25.5 8 Nordeste 22 Norte 0 -- -- 37
2020-08-02 13:00:00 24.1 10 Norte 19 Noroeste 0 -- -- 51
2020-08-02 12:00:00 22.6 7 Norte 17 Norte 0 -- -- 55
2020-08-02 11:00:00 21.2 8 Norte 13 Norte 0 -- -- 62
2020-08-02 10:00:00 20 4 Nordeste 10 Este 0 -- -- 64
2020-08-02 09:00:00 16.7 4 Norte 9 Nordeste 0 -- -- 76
2020-08-02 08:00:00 12.5 10 Sur 15 Sur 0 -- -- 83
2020-08-02 07:00:00 12.7 5 Sur 17 Sur 0 -- -- 81
2020-08-02 06:00:00 12.6 9 Sur 15 Sur 0 -- -- 80
2020-08-02 05:00:00 13.9 6 Sur 14 Sur 0 -- -- 76
2020-08-02 04:00:00 14.9 10 Sur 15 Sur 0 -- -- 73
2020-08-02 03:00:00 15.7 13 Sur 18 Sur 0 -- -- 71
2020-08-02 02:00:00 16.2 11 Sur 15 Sudeste 0 -- -- 68
2020-08-02 01:00:00 17.4 9 Sur 14 Sur 0 -- -- 63
2020-08-02 00:00:00 18.5 10 Sur 14 Sur 0 -- -- 60
2020-08-01 23:00:00 19.4 8 Sur 12 Sudoeste 0 -- -- 57
2020-08-01 22:00:00 23.1 5 Sur 13 Noroeste 0 -- -- 42
2020-08-01 21:00:00 27.7 12 Oeste 21 Oeste 0 -- -- 31
2020-08-01 20:00:00 29.1 14 Oeste 30 Oeste 0 -- -- 31
2020-08-01 19:00:00 29.9 16 Oeste 32 Oeste 0 -- -- 30
2020-08-01 18:00:00 29.9 15 Oeste 36 Oeste 0 -- -- 31
2020-08-01 17:00:00 30 20 Noroeste 34 Oeste 0 -- -- 32
2020-08-01 16:00:00 29.3 16 Oeste 33 Oeste 0 -- -- 34
2020-08-01 15:00:00 28.7 12 Oeste 25 Oeste 0 -- -- 36
2020-08-01 14:00:00 27.7 15 Noroeste 25 Oeste 0 -- -- 36
2020-08-01 13:00:00 26.4 9 Oeste 20 Oeste 0 -- -- 40
2020-08-01 12:00:00 24.9 12 Noroeste 19 Noroeste 0 -- -- 40
2020-08-01 11:00:00 23.1 9 Oeste 15 Oeste 0 -- -- 44
2020-08-01 10:00:00 21 7 Noroeste 13 Oeste 0 -- -- 49
2020-08-01 09:00:00 17.4 9 Sur 21 Sudeste 0 -- -- 53
2020-08-01 08:00:00 14.4 14 Sur 19 Sudeste 0 -- -- 67
2020-08-01 07:00:00 13.4 10 Sur 18 Sur 0 -- -- 67
2020-08-01 06:00:00 14.3 13 Sur 16 Sur 0 -- -- 68
2020-08-01 05:00:00 15.9 7 Sur 16 Sur 0 -- -- 63
2020-08-01 04:00:00 17.2 6 Sur 17 Sur 0 -- -- 60
2020-08-01 03:00:00 17.4 15 Sur 19 Sur 0 -- -- 60
2020-08-01 02:00:00 17.4 13 Sur 16 Sur 0 -- -- 59
2020-08-01 01:00:00 18.4 10 Sur 15 Sudoeste 0 -- -- 53
2020-08-01 00:00:00 19.8 8 Sudoeste 13 Sudoeste 0 -- -- 48
2020-07-31 23:00:00 21.4 9 Sur 16 Sur 0 -- -- 42
2020-07-31 22:00:00 23.6 13 Sur 14 Sur 0 -- -- 39
2020-07-31 21:00:00 30.3 12 Oeste 26 Oeste 0 -- -- 24
2020-07-31 20:00:00 31.8 15 Sudoeste 31 Oeste 0 -- -- 23
2020-07-31 19:00:00 32.6 15 Sudoeste 30 Sudoeste 0 -- -- 23
2020-07-31 18:00:00 33.6 15 Sudoeste 42 Sudoeste 0 -- -- 22
2020-07-31 17:00:00 33 19 Sudoeste 33 Oeste 0 -- -- 22
2020-07-31 16:00:00 32.5 17 Sur 31 Sur 0 -- -- 26
2020-07-31 15:00:00 32.2 13 Sudoeste 31 Sudoeste 0 -- -- 26
2020-07-31 14:00:00 31.2 14 Sur 30 Sudoeste 0 -- -- 29
2020-07-31 13:00:00 30.2 14 Sur 31 Sur 0 -- -- 29
2020-07-31 12:00:00 28.8 15 Sur 31 Sur 0 -- -- 33
2020-07-31 11:00:00 27.5 15 Sudoeste 29 Sudoeste 0 -- -- 37
2020-07-31 10:00:00 25.8 17 Sur 30 Sur 0 -- -- 43
2020-07-31 09:00:00 24.5 15 Sur 27 Sur 0 -- -- 44
2020-07-31 08:00:00 18.4 6 Sudeste 15 Sur 0 -- -- 54
2020-07-31 07:00:00 16.7 10 Sudeste 15 Sudeste 0 -- -- 62
2020-07-31 06:00:00 17.6 14 Sur 21 Sur 0 -- -- 58
2020-07-31 05:00:00 18 12 Sur 17 Sudeste 0 -- -- 54
2020-07-31 04:00:00 18.1 13 Sudeste 15 Sudeste 0 -- -- 53
2020-07-31 03:00:00 18.7 12 Sur 19 Sur 0 -- -- 53
2020-07-31 02:00:00 18.6 17 Sur 20 Sur 0 -- -- 56
2020-07-31 01:00:00 18.6 11 Sur 13 Sur 0 -- -- 59
2020-07-31 00:00:00 20 9 Sur 14 Sur 0 -- -- 56
2020-07-30 23:00:00 22.4 6 Sudoeste 21 Oeste 0 -- -- 49
2020-07-30 22:00:00 24.4 10 Sur 22 Oeste 0 -- -- 44
2020-07-30 21:00:00 29.4 12 Sudoeste 25 Oeste 0 -- -- 31
2020-07-30 20:00:00 30.7 16 Oeste 31 Sudoeste 0 -- -- 27
2020-07-30 19:00:00 30.7 12 Sudoeste 24 Sudoeste 0 -- -- 28
2020-07-30 18:00:00 31.8 16 Sur 35 Sur 0 -- -- 24
2020-07-30 17:00:00 31.9 22 Sudoeste 54 Sudoeste 0 -- -- 25
2020-07-30 16:00:00 32 19 Sudoeste 39 Sur 0 -- -- 30
2020-07-30 15:00:00 31.1 20 Sur 41 Sudoeste 0 -- -- 34
2020-07-30 14:00:00 30.9 14 Sudeste 36 Sudoeste 0 -- -- 36
2020-07-30 13:00:00 30.2 14 Sudoeste 33 Sudoeste 0 -- -- 37
2020-07-30 12:00:00 30.1 22 Sur 42 Sur 0 -- -- 32
2020-07-30 11:00:00 28.8 27 Sur 44 Sudeste 0 -- -- 36
2020-07-30 10:00:00 28.3 24 Sudeste 42 Sudeste 0 -- -- 35
2020-07-30 09:00:00 27.1 24 Sudeste 37 Sudeste 0 -- -- 40
2020-07-30 08:00:00 21 11 Sur 17 Sur 0 -- -- 55
2020-07-30 07:00:00 19.7 4 Sur 12 Sur 0 -- -- 58
2020-07-30 06:00:00 19.8 7 Sudeste 15 Sudeste 0 -- -- 60
2020-07-30 05:00:00 19.6 14 Sur 18 Sur 0 -- -- 63
2020-07-30 04:00:00 20.3 12 Sudeste 20 Sur 0 -- -- 62
2020-07-30 03:00:00 20.6 16 Sur 21 Sur 0 -- -- 62
2020-07-30 02:00:00 21.4 15 Sur 22 Sur 0 -- -- 58
2020-07-30 01:00:00 21.9 12 Sur 19 Sur 0 -- -- 53
2020-07-30 00:00:00 22.9 9 Sur 19 Sur 0 -- -- 48
2020-07-29 23:00:00 23.6 17 Sur 21 Sur 0 -- -- 43
2020-07-29 22:00:00 25.5 16 Sur 19 Sur 0 -- -- 41
2020-07-29 21:00:00 31.8 7 Sudoeste 17 Sudoeste 0 -- -- 27
2020-07-29 20:00:00 33.1 9 Sur 25 Sudeste 0 -- -- 23
2020-07-29 19:00:00 33.7 13 Sur 27 Sur 0 -- -- 21
2020-07-29 18:00:00 33.9 15 Sudeste 28 Sur 0 -- -- 23
2020-07-29 17:00:00 34.3 17 Sur 31 Sur 0 -- -- 25
2020-07-29 16:00:00 33.9 17 Sur 31 Sudeste 0 -- -- 23
2020-07-29 15:00:00 33.5 13 Sur 32 Sudoeste 0 -- -- 24
2020-07-29 14:00:00 33 16 Sudeste 30 Sudeste 0 -- -- 25
2020-07-29 13:00:00 30.8 8 Noroeste 17 Noroeste 0 -- -- 34
2020-07-29 12:00:00 29.6 7 Noroeste 14 Noroeste 0 -- -- 40
2020-07-29 11:00:00 26.4 6 Noroeste 10 Oeste 0 -- -- 49
2020-07-29 10:00:00 23.9 3 Oeste 6 Noroeste 0 -- -- 55
2020-07-29 09:00:00 21.8 2 Sur 13 Sur 0 -- -- 59
2020-07-29 08:00:00 17.6 2 Sudeste 9 Sudeste 0 -- -- 68
2020-07-29 07:00:00 16.7 4 Sudeste 8 Sur 0 -- -- 67
2020-07-29 06:00:00 17.6 6 Sur 10 Sur 0 -- -- 65
2020-07-29 05:00:00 18.1 6 Sudeste 10 Este 0 -- -- 65
2020-07-29 04:00:00 18.1 7 Este 12 Sudeste 0 -- -- 66
2020-07-29 03:00:00 18.6 9 Sudeste 18 Sur 0 -- -- 65
2020-07-29 02:00:00 19.4 15 Sur 19 Sur 0 -- -- 62
2020-07-29 01:00:00 20.1 17 Sur 19 Sur 0 -- -- 55
2020-07-29 00:00:00 21.1 10 Sur 17 Sur 0 -- -- 50
2020-07-28 23:00:00 22.5 12 Sur 18 Sur 0 -- -- 47
2020-07-28 22:00:00 25.6 8 Sur 15 Noroeste 0 -- -- 43
2020-07-28 21:00:00 30 9 Noroeste 18 Noroeste 0 -- -- 31
2020-07-28 20:00:00 32 4 Oeste 23 Oeste 0 -- -- 31
2020-07-28 19:00:00 32 9 Noroeste 21 Oeste 0 -- -- 30
2020-07-28 18:00:00 32.3 8 Norte 26 Sudoeste 0 -- -- 29
2020-07-28 17:00:00 31.6 13 Oeste 26 Sur 0 -- -- 30
2020-07-28 16:00:00 31.3 15 Noroeste 32 Noroeste 0 -- -- 32
2020-07-28 15:00:00 30.4 16 Noroeste 26 Oeste 0 -- -- 36
2020-07-28 14:00:00 28.8 7 Noroeste 18 Noroeste 0 -- -- 44
2020-07-28 13:00:00 27 9 Noroeste 16 Noroeste 0 -- -- 50
2020-07-28 12:00:00 25 5 Noroeste 16 Noroeste 0 -- -- 57
2020-07-28 11:00:00 22.3 9 Noroeste 16 Noroeste 0 -- -- 65
2020-07-28 10:00:00 20.4 5 Oeste 11 Sudoeste 0 -- -- 73
2020-07-28 09:00:00 17.8 5 Sudoeste 9 Sudoeste 0 -- -- 82
2020-07-28 08:00:00 16.1 6 Sudoeste 10 Sudoeste 0 -- -- 84
2020-07-28 07:00:00 16.5 4 Sudoeste 10 Sur 0 -- -- 80
2020-07-28 06:00:00 17.2 4 Sur 8 Sur 0 -- -- 77
2020-07-28 05:00:00 18.4 5 Oeste 17 Sur 0 -- -- 73
2020-07-28 04:00:00 17.9 6 Sur 17 Sur 0 -- -- 72
2020-07-28 03:00:00 18.5 15 Sur 18 Sur 0 -- -- 69
2020-07-28 02:00:00 19.1 10 Sur 14 Sur 0 -- -- 65
2020-07-28 01:00:00 20.7 8 Sudoeste 17 Sudoeste 0 -- -- 62
2020-07-28 00:00:00 22.2 12 Sudoeste 19 Sudoeste 0 -- -- 63
2020-07-27 23:00:00 23.5 12 Sudoeste 21 Sudoeste 0 -- -- 60
2020-07-27 22:00:00 26.3 11 Sudoeste 27 Sudoeste 0 -- -- 50
2020-07-27 21:00:00 30.7 12 Oeste 18 Oeste 0 -- -- 29
2020-07-27 20:00:00 31.6 10 Sur 25 Sur 0 -- -- 29
2020-07-27 19:00:00 33.3 11 Sudoeste 28 Sudeste 0 -- -- 24
2020-07-27 18:00:00 33.2 15 Sudeste 34 Sudoeste 0 -- -- 27
2020-07-27 17:00:00 33.9 18 Sur 37 Sudeste 0 -- -- 27
2020-07-27 16:00:00 33.8 17 Sur 30 Sur 0 -- -- 26
2020-07-27 15:00:00 33.8 10 Sudoeste 33 Sudeste 0 -- -- 25
2020-07-27 14:00:00 32.3 21 Sudeste 35 Este 0 -- -- 27
2020-07-27 13:00:00 31.1 19 Sudeste 34 Sudeste 0 -- -- 28
2020-07-27 12:00:00 31.1 13 Sur 26 Sur 0 -- -- 29
2020-07-27 09:00:00 21.9 2 Sur 10 Sudeste 0 -- -- 50
2020-07-27 08:00:00 17.6 7 Sur 13 Sur 0 -- -- 52
2020-07-27 07:00:00 18.4 7 Sudeste 17 Sudeste 0 -- -- 48
2020-07-27 06:00:00 18.3 9 Sudeste 19 Sur 0 -- -- 47
2020-07-27 05:00:00 18.5 11 Sur 15 Sur 0 -- -- 45
2020-07-27 04:00:00 19.5 12 Sudeste 16 Sudeste 0 -- -- 39
2020-07-27 03:00:00 20 14 Sudeste 17 Sur 0 -- -- 37
2020-07-27 02:00:00 20.5 14 Sur 17 Sudeste 0 -- -- 40
2020-07-27 01:00:00 20.8 15 Sur 18 Sur 0 -- -- 40
2020-07-27 00:00:00 21.4 15 Sudeste 20 Sur 0 -- -- 41
2020-07-26 23:00:00 21.9 17 Sur 22 Sur 0 -- -- 41
2020-07-26 22:00:00 23.7 15 Sur 18 Sur 0 -- -- 40
2020-07-26 21:00:00 31.4 3 Oeste 14 Noroeste 0 -- -- 27
2020-07-26 20:00:00 32.4 8 Oeste 18 Oeste 0 -- -- 25
2020-07-26 19:00:00 32.7 12 Oeste 24 Oeste 0 -- -- 26
2020-07-26 18:00:00 33.1 13 Oeste 23 Noroeste 0 -- -- 26
2020-07-26 17:00:00 32.6 6 Norte 21 Noroeste 0 -- -- 28
2020-07-26 16:00:00 31.3 14 Oeste 22 Oeste 0 -- -- 31
2020-07-26 15:00:00 31.1 6 Sudeste 20 Norte 0 -- -- 30
2020-07-26 14:00:00 29.5 6 Norte 17 Noroeste 0 -- -- 31
2020-07-26 13:00:00 28.1 10 Nordeste 17 Norte 0 -- -- 34
2020-07-26 12:00:00 26.1 3 Nordeste 11 Norte 0 -- -- 38
2020-07-26 11:00:00 23 4 Nordeste 11 Nordeste 0 -- -- 45
2020-07-26 10:00:00 20.6 8 Este 12 Este 0 -- -- 55
2020-07-26 09:00:00 16 4 Sudeste 8 Sudeste 0 -- -- 71
2020-07-26 08:00:00 14.5 5 Este 8 Este 0 -- -- 77
2020-07-26 07:00:00 14.6 4 Este 11 Este 0 -- -- 73
2020-07-26 06:00:00 15.9 8 Este 13 Sudeste 0 -- -- 71
2020-07-26 05:00:00 15.8 6 Este 11 Nordeste 0 -- -- 71
2020-07-26 04:00:00 17.1 9 Nordeste 13 Sudeste 0 -- -- 66
2020-07-26 03:00:00 16.4 12 Sur 17 Sur 0 -- -- 64
2020-07-26 02:00:00 17.1 13 Sur 14 Sur 0 -- -- 61
2020-07-26 01:00:00 17.9 12 Sur 14 Sur 0 -- -- 55
2020-07-26 00:00:00 19.1 12 Sur 15 Sur 0 -- -- 47
2020-07-25 23:00:00 21.5 7 Sur 12 Sudoeste 0 -- -- 39
2020-07-25 22:00:00 25.3 7 Oeste 25 Oeste 0 -- -- 31
2020-07-25 21:00:00 29.1 12 Oeste 22 Oeste 0 -- -- 33
2020-07-25 20:00:00 30.4 15 Oeste 29 Oeste 0 -- -- 28
2020-07-25 19:00:00 31.2 18 Oeste 33 Oeste 0 -- -- 24
2020-07-25 18:00:00 31.4 22 Oeste 37 Sudoeste 0 -- -- 26
2020-07-25 17:00:00 31.4 18 Oeste 37 Oeste 0 -- -- 27
2020-07-25 16:00:00 31 20 Oeste 37 Oeste 0 -- -- 28
2020-07-25 15:00:00 30.6 22 Oeste 39 Oeste 0 -- -- 30
2020-07-25 14:00:00 29.2 15 Oeste 26 Noroeste 0 -- -- 31
2020-07-25 13:00:00 28 13 Noroeste 24 Oeste 0 -- -- 34
2020-07-25 12:00:00 26.8 12 Noroeste 18 Oeste 0 -- -- 37
2020-07-25 11:00:00 25 8 Noroeste 13 Noroeste 0 -- -- 40
2020-07-25 10:00:00 22.7 5 Oeste 12 Oeste 0 -- -- 46
2020-07-25 09:00:00 19.6 0 Calma 10 Sur 0 -- -- 51
2020-07-25 08:00:00 15.2 5 Sur 12 Sur 0 -- -- 63
2020-07-25 07:00:00 14.2 12 Sur 14 Sur 0 -- -- 67
2020-07-25 06:00:00 15.3 10 Sur 14 Sur 0 -- -- 63
2020-07-25 05:00:00 16.4 13 Sur 20 Sur 0 -- -- 61
2020-07-25 04:00:00 16.3 8 Sur 18 Sur 0 -- -- 62
2020-07-25 03:00:00 17.4 14 Sur 18 Sur 0 -- -- 58
2020-07-25 02:00:00 17.5 10 Sur 17 Sudeste 0 -- -- 57
2020-07-25 01:00:00 18.2 10 Sur 15 Sudeste 0 -- -- 53
2020-07-25 00:00:00 19.9 5 Sudeste 14 Sur 0 -- -- 46
2020-07-24 23:00:00 21 9 Sur 17 Sur 0 -- -- 46
2020-07-24 22:00:00 24.2 8 Sur 22 Noroeste 0 -- -- 40
2020-07-24 21:00:00 28.5 13 Noroeste 24 Noroeste 0 -- -- 30
2020-07-24 20:00:00 30.1 14 Noroeste 26 Noroeste 0 -- -- 26
2020-07-24 19:00:00 30.9 8 Noroeste 26 Oeste 0 -- -- 24
2020-07-24 18:00:00 31 9 Noroeste 27 Noroeste 0 -- -- 24
2020-07-24 17:00:00 31.2 10 Oeste 37 Noroeste 0 -- -- 22
2020-07-24 16:00:00 30.5 12 Noroeste 24 Noroeste 0 -- -- 24
2020-07-24 15:00:00 29.9 6 Sudoeste 22 Oeste 0 -- -- 24
2020-07-24 14:00:00 29 6 Noroeste 18 Noroeste 0 -- -- 28
2020-07-24 13:00:00 27.4 5 Este 14 Norte 0 -- -- 34
2020-07-24 12:00:00 25.4 5 Noroeste 14 Noroeste 0 -- -- 40
2020-07-24 11:00:00 23.9 5 Norte 12 Norte 0 -- -- 46
2020-07-24 10:00:00 22.5 4 Norte 9 Noroeste 0 -- -- 49
2020-07-24 09:00:00 18.4 5 Sur 15 Sur 0 -- -- 63
2020-07-24 08:00:00 15.1 8 Sur 18 Sur 0 -- -- 71
2020-07-24 07:00:00 14.3 13 Sur 18 Sur 0 -- -- 72
2020-07-24 06:00:00 15.3 14 Sur 16 Sur 0 -- -- 69
2020-07-24 05:00:00 16.7 11 Sur 16 Sur 0 -- -- 67
2020-07-24 04:00:00 17.7 10 Sur 14 Sur 0 -- -- 65
2020-07-24 03:00:00 18.7 12 Sur 17 Sur 0 -- -- 62
2020-07-24 02:00:00 18.7 12 Sur 17 Sur 0 -- -- 62
2020-07-24 01:00:00 19.1 10 Sur 14 Sudoeste 0 -- -- 61
2020-07-24 00:00:00 20.9 9 Sudoeste 14 Sudoeste 0 -- -- 54
2020-07-23 23:00:00 22.9 9 Sudoeste 15 Noroeste 0 -- -- 52
2020-07-23 22:00:00 25.8 10 Oeste 25 Noroeste 0 -- -- 44
2020-07-23 21:00:00 28.7 18 Noroeste 29 Noroeste 0 -- -- 39
2020-07-23 20:00:00 29.7 11 Noroeste 32 Oeste 0 -- -- 36
2020-07-23 19:00:00 32 18 Oeste 28 Oeste 0 -- -- 28
2020-07-23 18:00:00 32.3 11 Oeste 26 Oeste 0 -- -- 28
2020-07-23 17:00:00 31.8 12 Noroeste 32 Oeste 0 -- -- 30
2020-07-23 16:00:00 31.8 17 Noroeste 27 Oeste 0 -- -- 28
2020-07-23 15:00:00 30.3 9 Oeste 26 Sudoeste 0 -- -- 34
2020-07-23 14:00:00 28.7 6 Oeste 22 Noroeste 0 -- -- 40
2020-07-23 13:00:00 29.5 6 Oeste 15 Noroeste 0 -- -- 38
2020-07-23 12:00:00 27.7 10 Noroeste 17 Noroeste 0 -- -- 44
2020-07-23 11:00:00 26.4 6 Norte 12 Oeste 0 -- -- 47
2020-07-23 10:00:00 24.7 5 Noroeste 9 Sur 0 -- -- 53
2020-07-23 09:00:00 20.6 6 Sur 10 Sur 0 -- -- 66
2020-07-23 08:00:00 17.2 5 Sur 17 Sur 0 -- -- 76
2020-07-23 07:00:00 16.6 9 Sur 17 Sur 0 -- -- 79
2020-07-23 06:00:00 16.8 14 Sur 18 Sur 0 -- -- 78
2020-07-23 05:00:00 17.4 16 Sur 21 Sur 0 -- -- 76
2020-07-23 04:00:00 17.9 12 Sur 19 Sur 0 -- -- 74
2020-07-23 03:00:00 18.6 13 Sur 17 Sur 0 -- -- 73
2020-07-23 02:00:00 19.1 9 Sur 18 Sudoeste 0 -- -- 72
2020-07-23 01:00:00 21.1 12 Sudoeste 18 Sudoeste 0 -- -- 65
2020-07-23 00:00:00 22.5 11 Sudoeste 19 Sur 0 -- -- 61
2020-07-22 23:00:00 21.6 16 Sur 19 Sur 0 -- -- 57
2020-07-22 22:00:00 24.2 9 Sur 12 Sur 0 -- -- 53
2020-07-22 21:00:00 28.8 6 Norte 16 Norte 0 -- -- 35
2020-07-22 20:00:00 29.5 12 Norte 22 Noroeste 0 -- -- 33
2020-07-22 19:00:00 29.8 10 Noroeste 17 Noroeste 0 -- -- 35
2020-07-22 18:00:00 28.4 10 Noroeste 19 Nordeste 0 -- -- 38
2020-07-22 17:00:00 28.4 6 Noroeste 19 Noroeste 0 -- -- 40
2020-07-22 16:00:00 27.4 13 Noroeste 22 Norte 0 -- -- 45
2020-07-22 15:00:00 26.9 6 Norte 17 Noroeste 0 -- -- 45
2020-07-22 14:00:00 26.4 6 Oeste 18 Noroeste 0 -- -- 48
2020-07-22 13:00:00 25 12 Oeste 22 Oeste 0 -- -- 50
2020-07-22 12:00:00 23.6 8 Oeste 16 Noroeste 0 -- -- 57
2020-07-22 11:00:00 22.7 7 Norte 14 Norte 0 -- -- 59
2020-07-22 10:00:00 21.2 10 Nordeste 18 Nordeste 0 -- -- 63
2020-07-22 09:00:00 21 6 Nordeste 12 Este 0 -- -- 60
2020-07-22 08:00:00 18.3 9 Este 14 Este 0 -- -- 72
2020-07-22 07:00:00 18.1 12 Este 19 Este 0 -- -- 69
2020-07-22 06:00:00 17.5 13 Este 16 Este 0 -- -- 73
2020-07-22 05:00:00 15.6 11 Sudeste 23 Sur 0.2 -- -- 87
2020-07-22 04:00:00 15.6 9 Sur 22 Sur 0.2 -- -- 88
2020-07-22 03:00:00 16.9 17 Sudeste 25 Sudeste 0.2 -- -- 80
2020-07-22 02:00:00 16.1 12 Sur 33 Este 0.4 -- -- 87
2020-07-22 01:00:00 17.5 21 Sudeste 48 Sur 1.4 -- -- 76
2020-07-22 00:00:00 18.1 19 Sur 37 Sur 0.2 -- -- 71
2020-07-21 23:00:00 18.2 17 Sudoeste 46 Sudoeste 1 -- -- 66
2020-07-21 22:00:00 19.8 26 Sur 61 Sur 0.4 -- -- 56
2020-07-21 21:00:00 23.3 41 Sudeste 59 Sudeste 0 -- -- 45
2020-07-21 20:00:00 23.3 11 Sudeste 32 Sudeste 0 -- -- 44
2020-07-21 19:00:00 24.9 10 Este 15 Este 0 -- -- 45
2020-07-21 18:00:00 25.3 5 Este 10 Oeste 0 -- -- 42
2020-07-21 17:00:00 25.4 4 Oeste 28 Sudoeste 0 -- -- 41
2020-07-21 16:00:00 21.8 12 Sudoeste 21 Oeste 0 -- -- 57
2020-07-21 15:00:00 22 10 Sudoeste 32 Sudoeste 0 -- -- 59
2020-07-21 14:00:00 26.9 7 Este 18 Nordeste 0 -- -- 35
2020-07-21 13:00:00 27.1 5 Norte 25 Oeste 0 -- -- 35
2020-07-21 12:00:00 25.7 19 Oeste 30 Oeste 0 -- -- 40
2020-07-21 11:00:00 25.6 4 Este 10 Este 0 -- -- 38
2020-07-21 10:00:00 24.3 8 Este 13 Este 0 -- -- 39
2020-07-21 09:00:00 22.3 5 Este 13 Sudeste 0 -- -- 44
2020-07-21 08:00:00 22 3 Este 25 Noroeste 0 -- -- 40
2020-07-21 07:00:00 22.7 4 Noroeste 28 Sudoeste 0 -- -- 35
2020-07-21 06:00:00 24 15 Este 27 Sudeste 0 -- -- 25
2020-07-21 05:00:00 20.3 9 Este 17 Este 0 -- -- 35
2020-07-21 04:00:00 20.1 9 Este 15 Este 0 -- -- 37
2020-07-21 03:00:00 18.3 8 Sudeste 16 Sur 0 -- -- 46
2020-07-21 02:00:00 19.4 15 Sudeste 19 Sudeste 0 -- -- 42
2020-07-21 01:00:00 19.8 17 Sur 21 Sur 0 -- -- 38
2020-07-21 00:00:00 20.8 18 Sur 22 Sur 0 -- -- 33
2020-07-20 23:00:00 21.3 18 Sur 23 Sur 0 -- -- 31
2020-07-20 22:00:00 23.1 18 Sur 22 Sur 0 -- -- 34
2020-07-20 21:00:00 29.9 9 Noroeste 18 Oeste 0 -- -- 20
2020-07-20 20:00:00 31.6 11 Oeste 26 Oeste 0 -- -- 19
2020-07-20 19:00:00 32.3 10 Noroeste 31 Oeste 0 -- -- 17
2020-07-20 18:00:00 32.9 10 Oeste 30 Oeste 0 -- -- 16
2020-07-20 17:00:00 32.5 17 Oeste 33 Oeste 0 -- -- 16
2020-07-20 16:00:00 32.2 17 Oeste 34 Sudoeste 0 -- -- 19
2020-07-20 15:00:00 31.5 10 Sudoeste 44 Oeste 0 -- -- 21
2020-07-20 14:00:00 31.4 12 Sudoeste 31 Sur 0 -- -- 21
2020-07-20 13:00:00 30.3 18 Sudoeste 31 Sudoeste 0 -- -- 22
2020-07-20 12:00:00 28.8 17 Sudoeste 31 Sudoeste 0 -- -- 23
2020-07-20 11:00:00 27.6 17 Sudoeste 27 Sudoeste 0 -- -- 24
2020-07-20 10:00:00 26.3 12 Sudoeste 19 Sudoeste 0 -- -- 23
2020-07-20 09:00:00 20.6 10 Sur 17 Sur 0 -- -- 40
2020-07-20 08:00:00 16 12 Sur 19 Sur 0 -- -- 49
2020-07-20 07:00:00 15.7 15 Sur 21 Sur 0 -- -- 39
2020-07-20 06:00:00 15.9 15 Sur 19 Sur 0 -- -- 41
2020-07-20 05:00:00 15.3 12 Sudeste 17 Sudeste 0 -- -- 57
2020-07-20 04:00:00 16.3 15 Sur 19 Sur 0 -- -- 57
2020-07-20 03:00:00 16.6 13 Sur 16 Sudeste 0 -- -- 56
2020-07-20 02:00:00 18 9 Sur 19 Sur 0 -- -- 53
2020-07-20 01:00:00 18.3 11 Sur 16 Sur 0 -- -- 54
2020-07-20 00:00:00 21.1 9 Sudoeste 15 Sudoeste 0 -- -- 47
2020-07-19 23:00:00 23.1 11 Sudoeste 17 Sudoeste 0 -- -- 40
2020-07-19 22:00:00 25.3 12 Sudoeste 19 Sudoeste 0 -- -- 34
2020-07-19 21:00:00 29.2 12 Sudoeste 26 Sudoeste 0 -- -- 26
2020-07-19 20:00:00 30.7 17 Oeste 30 Sudoeste 0 -- -- 22
2020-07-19 19:00:00 31.2 16 Sudoeste 32 Oeste 0 -- -- 24
2020-07-19 18:00:00 31.6 19 Sudoeste 33 Sudoeste 0 -- -- 22
2020-07-19 17:00:00 31.9 19 Sudoeste 31 Sur 0 -- -- 22
2020-07-19 16:00:00 31.8 15 Sur 32 Sur 0 -- -- 22
2020-07-19 15:00:00 30.9 15 Sur 32 Sur 0 -- -- 22
2020-07-19 14:00:00 30.2 15 Sur 32 Sur 0 -- -- 26
2020-07-19 13:00:00 29.3 22 Sur 35 Sur 0 -- -- 24
2020-07-19 12:00:00 28.5 18 Sur 41 Sur 0 -- -- 25
2020-07-19 11:00:00 27.3 24 Sur 38 Sur 0 -- -- 29
2020-07-19 10:00:00 26.5 21 Sur 35 Sur 0 -- -- 33
2020-07-19 09:00:00 24.5 10 Sur 14 Sur 0 -- -- 41
2020-07-19 08:00:00 19.1 9 Sudeste 15 Sudeste 0 -- -- 54
2020-07-19 07:00:00 18 10 Sudeste 18 Sur 0 -- -- 52
2020-07-19 06:00:00 17.9 10 Sudeste 22 Sur 0 -- -- 55
2020-07-19 05:00:00 18.8 18 Sur 22 Sur 0 -- -- 54
2020-07-19 04:00:00 18.9 18 Sur 23 Sur 0 -- -- 54
2020-07-19 03:00:00 18.9 17 Sur 22 Sur 0 -- -- 52
2020-07-19 02:00:00 19 14 Sur 17 Sur 0 -- -- 51
2020-07-19 01:00:00 19.9 10 Sur 15 Sudoeste 0 -- -- 49
2020-07-19 00:00:00 20.5 6 Sur 16 Sudeste 0 -- -- 42
2020-07-18 23:00:00 21.9 15 Sur 17 Sur 0 -- -- 41
2020-07-18 22:00:00 24.4 13 Sudeste 14 Sudeste 0 -- -- 39
2020-07-18 21:00:00 31.2 4 Noroeste 20 Noroeste 0 -- -- 25
2020-07-18 20:00:00 31.7 12 Noroeste 26 Oeste 0 -- -- 24
2020-07-18 19:00:00 32.5 8 Noroeste 24 Noroeste 0 -- -- 23
2020-07-18 18:00:00 32.4 8 Noroeste 27 Noroeste 0 -- -- 22
2020-07-18 17:00:00 32.4 16 Noroeste 30 Noroeste 0 -- -- 21
2020-07-18 16:00:00 32.4 10 Norte 23 Norte 0 -- -- 22
2020-07-18 15:00:00 31.8 8 Norte 24 Norte 0 -- -- 22
2020-07-18 14:00:00 31.1 4 Nordeste 17 Nordeste 0 -- -- 20
2020-07-18 13:00:00 29.8 9 Nordeste 23 Este 0 -- -- 22
2020-07-18 12:00:00 28.2 10 Este 24 Nordeste 0 -- -- 24
2020-07-18 11:00:00 27.1 16 Este 26 Este 0 -- -- 25
2020-07-18 10:00:00 26.2 17 Este 26 Este 0 -- -- 23
2020-07-18 09:00:00 24.6 12 Este 20 Este 0 -- -- 26
2020-07-18 08:00:00 20.8 12 Este 17 Este 0 -- -- 30
2020-07-18 07:00:00 20 12 Este 18 Este 0 -- -- 30
2020-07-18 06:00:00 19.7 12 Este 18 Este 0 -- -- 32
2020-07-18 05:00:00 20.4 13 Este 20 Este 0 -- -- 30
2020-07-18 04:00:00 21.6 14 Este 35 Este 0 -- -- 31
2020-07-18 03:00:00 23.2 19 Este 29 Este 0 -- -- 25
2020-07-18 02:00:00 22.5 19 Este 27 Este 0 -- -- 24
2020-07-18 01:00:00 22.4 19 Este 31 Este 0 -- -- 26
2020-07-18 00:00:00 22.9 20 Este 27 Este 0 -- -- 26
2020-07-17 23:00:00 22.7 14 Este 21 Este 0 -- -- 27
2020-07-17 22:00:00 23.6 11 Este 15 Nordeste 0 -- -- 26
2020-07-17 21:00:00 28.7 11 Nordeste 23 Norte 0 -- -- 19
2020-07-17 20:00:00 30.2 14 Norte 25 Norte 0 -- -- 16
2020-07-17 19:00:00 30.3 16 Nordeste 28 Norte 0 -- -- 18
2020-07-17 18:00:00 31.1 14 Norte 29 Nordeste 0 -- -- 18
2020-07-17 17:00:00 31.1 14 Norte 29 Noroeste 0 -- -- 19
2020-07-17 16:00:00 30.6 12 Norte 28 Noroeste 0 -- -- 22
2020-07-17 15:00:00 29.7 11 Nordeste 28 Norte 0 -- -- 24
2020-07-17 14:00:00 29 15 Nordeste 31 Norte 0 -- -- 26
2020-07-17 13:00:00 28.3 18 Nordeste 30 Este 0 -- -- 26
2020-07-17 12:00:00 27 16 Nordeste 25 Este 0 -- -- 27
2020-07-17 11:00:00 26.1 19 Nordeste 27 Nordeste 0 -- -- 26
2020-07-17 10:00:00 24.9 14 Nordeste 26 Este 0 -- -- 31
2020-07-17 09:00:00 23.7 14 Este 23 Este 0 -- -- 37
2020-07-17 08:00:00 21 15 Este 26 Este 0 -- -- 42
2020-07-17 07:00:00 18.9 15 Este 20 Este 0 -- -- 47
2020-07-17 06:00:00 18.8 13 Este 21 Este 0 -- -- 48
2020-07-17 05:00:00 19.1 14 Este 26 Este 0 -- -- 49
2020-07-17 04:00:00 20 17 Este 26 Nordeste 0 -- -- 47
2020-07-17 03:00:00 20.5 14 Este 24 Este 0 -- -- 46
2020-07-17 02:00:00 21.4 15 Este 30 Este 0 -- -- 43
2020-07-17 01:00:00 22.5 19 Este 31 Este 0 -- -- 40
2020-07-17 00:00:00 23.2 13 Este 21 Este 0 -- -- 33
2020-07-16 23:00:00 23.3 13 Este 18 Este 0 -- -- 32
2020-07-16 22:00:00 25.4 6 Nordeste 15 Nordeste 0 -- -- 32
2020-07-16 21:00:00 29.6 8 Norte 23 Nordeste 0 -- -- 25
2020-07-16 20:00:00 30.6 12 Nordeste 22 Nordeste 0 -- -- 22
2020-07-16 19:00:00 31.6 8 Norte 22 Nordeste 0 -- -- 22
2020-07-16 18:00:00 31.2 9 Noroeste 24 Norte 0 -- -- 23
2020-07-16 17:00:00 31.2 11 Noroeste 30 Norte 0 -- -- 24
2020-07-16 16:00:00 30.9 10 Norte 27 Noroeste 0 -- -- 25
2020-07-16 15:00:00 30.3 9 Norte 27 Norte 0 -- -- 26
2020-07-16 14:00:00 29.7 8 Noroeste 18 Norte 0 -- -- 28
2020-07-16 13:00:00 28.6 10 Nordeste 24 Nordeste 0 -- -- 30
2020-07-16 12:00:00 27 14 Nordeste 26 Nordeste 0 -- -- 33
2020-07-16 11:00:00 25.6 19 Nordeste 28 Nordeste 0 -- -- 32
2020-07-16 10:00:00 24.1 17 Nordeste 24 Este 0 -- -- 35
2020-07-16 09:00:00 20 13 Nordeste 18 Nordeste 0 -- -- 47
2020-07-16 08:00:00 17.9 12 Este 19 Este 0 -- -- 54
2020-07-16 07:00:00 19.2 13 Este 21 Este 0 -- -- 48
2020-07-16 06:00:00 19.9 17 Este 24 Este 0 -- -- 44
2020-07-16 05:00:00 20.8 14 Este 24 Este 0 -- -- 40
2020-07-16 04:00:00 21.4 17 Este 31 Este 0 -- -- 39
2020-07-16 03:00:00 21.3 21 Este 30 Este 0 -- -- 40
2020-07-16 02:00:00 19.4 14 Este 25 Este 0 -- -- 47
2020-07-16 01:00:00 20.2 17 Este 32 Este 0 -- -- 48
2020-07-16 00:00:00 21.3 15 Este 27 Este 0 -- -- 42
2020-07-15 23:00:00 21.6 12 Este 22 Este 0 -- -- 34
2020-07-15 22:00:00 23 10 Este 22 Nordeste 0 -- -- 29
2020-07-15 21:00:00 26.6 17 Nordeste 27 Nordeste 0 -- -- 23
2020-07-15 20:00:00 28.1 14 Nordeste 28 Norte 0 -- -- 25
2020-07-15 19:00:00 28.5 18 Nordeste 32 Nordeste 0 -- -- 26
2020-07-15 18:00:00 29.1 12 Norte 25 Nordeste 0 -- -- 26
2020-07-15 17:00:00 28.7 12 Nordeste 24 Nordeste 0 -- -- 26
2020-07-15 16:00:00 28 11 Nordeste 24 Nordeste 0 -- -- 27
2020-07-15 15:00:00 27.1 14 Nordeste 29 Nordeste 0 -- -- 29
2020-07-15 14:00:00 25.4 17 Nordeste 35 Nordeste 0 -- -- 32
2020-07-15 13:00:00 23.8 22 Nordeste 34 Nordeste 0 -- -- 34
2020-07-15 12:00:00 22.3 24 Nordeste 34 Nordeste 0 -- -- 36
2020-07-15 11:00:00 20.6 24 Nordeste 33 Nordeste 0 -- -- 40
2020-07-15 10:00:00 17.9 22 Nordeste 29 Nordeste 0 -- -- 46
2020-07-15 09:00:00 16.1 19 Nordeste 27 Nordeste 0 -- -- 53
2020-07-15 08:00:00 13.5 15 Nordeste 22 Nordeste 0 -- -- 62
2020-07-15 07:00:00 12.1 13 Este 18 Nordeste 0 -- -- 66
2020-07-15 06:00:00 12.9 11 Nordeste 20 Nordeste 0 -- -- 65
2020-07-15 05:00:00 14.5 12 Este 23 Este 0 -- -- 61
2020-07-15 04:00:00 15.9 16 Este 26 Este 0 -- -- 54
2020-07-15 03:00:00 19.3 22 Este 37 Este 0 -- -- 39
2020-07-15 02:00:00 19.3 21 Este 35 Este 0 -- -- 40
2020-07-15 01:00:00 20.2 22 Este 39 Este 0 -- -- 39
2020-07-15 00:00:00 20.9 19 Este 29 Nordeste 0 -- -- 34
2020-07-14 23:00:00 21.1 15 Este 20 Este 0 -- -- 32
2020-07-14 22:00:00 22.8 8 Nordeste 23 Nordeste 0 -- -- 30
2020-07-14 21:00:00 26.6 14 Nordeste 24 Nordeste 0 -- -- 23
2020-07-14 20:00:00 27.9 13 Nordeste 30 Nordeste 0 -- -- 21
2020-07-14 19:00:00 28.4 12 Norte 27 Noroeste 0 -- -- 23
2020-07-14 18:00:00 28.6 14 Norte 37 Norte 0 -- -- 25
2020-07-14 17:00:00 28.2 12 Noroeste 30 Norte 0 -- -- 29
2020-07-14 16:00:00 27.7 11 Nordeste 31 Norte 0 -- -- 30
2020-07-14 15:00:00 27.4 13 Norte 30 Norte 0 -- -- 29
2020-07-14 14:00:00 27.3 13 Nordeste 32 Norte 0 -- -- 26
2020-07-14 13:00:00 26.4 14 Nordeste 26 Nordeste 0 -- -- 19
2020-07-14 12:00:00 25 14 Nordeste 25 Nordeste 0 -- -- 20
2020-07-14 11:00:00 24 14 Nordeste 26 Nordeste 0 -- -- 13
2020-07-14 10:00:00 22.4 15 Nordeste 23 Este 0 -- -- 13
2020-07-14 09:00:00 20.7 18 Este 28 Este 0 -- -- 19
2020-07-14 08:00:00 16.5 17 Nordeste 23 Nordeste 0 -- -- 31
2020-07-14 07:00:00 15.7 15 Este 19 Este 0 -- -- 42
2020-07-14 06:00:00 16.8 13 Este 19 Nordeste 0 -- -- 38
2020-07-14 05:00:00 19 16 Este 27 Este 0 -- -- 33
2020-07-14 04:00:00 20.1 17 Este 31 Este 0 -- -- 49
2020-07-14 03:00:00 20.9 17 Este 30 Este 0 -- -- 49
2020-07-14 02:00:00 21 22 Este 35 Este 0 -- -- 48
2020-07-14 01:00:00 20.7 14 Este 30 Este 0 -- -- 50
2020-07-14 00:00:00 21 12 Este 17 Este 0 -- -- 49
2020-07-13 23:00:00 21.5 10 Este 15 Este 0 -- -- 47
2020-07-13 22:00:00 24.1 7 Nordeste 19 Norte 0 -- -- 40
2020-07-13 21:00:00 27.3 13 Norte 24 Nordeste 0 -- -- 32
2020-07-13 20:00:00 28.7 13 Norte 26 Norte 0 -- -- 30
2020-07-13 19:00:00 29 14 Nordeste 27 Nordeste 0 -- -- 29
2020-07-13 18:00:00 29.1 13 Norte 31 Norte 0 -- -- 28
2020-07-13 17:00:00 28.9 14 Norte 29 Norte 0 -- -- 32
2020-07-13 16:00:00 28.5 8 Nordeste 28 Norte 0 -- -- 34
2020-07-13 15:00:00 27.9 9 Nordeste 28 Nordeste 0 -- -- 38
2020-07-13 14:00:00 27.2 12 Nordeste 24 Nordeste 0 -- -- 43
2020-07-13 13:00:00 25.5 13 Nordeste 27 Norte 0 -- -- 48
2020-07-13 12:00:00 24.2 13 Nordeste 26 Nordeste 0 -- -- 52
2020-07-13 11:00:00 22.8 13 Nordeste 21 Norte 0 -- -- 54
2020-07-13 10:00:00 21.3 12 Nordeste 18 Nordeste 0 -- -- 60
2020-07-13 09:00:00 19.5 12 Nordeste 18 Nordeste 0 -- -- 66
2020-07-13 08:00:00 15.7 9 Este 13 Este 0 -- -- 78
2020-07-13 07:00:00 14.2 7 Este 10 Nordeste 0 -- -- 80
2020-07-13 06:00:00 15.8 8 Este 11 Este 0 -- -- 79
2020-07-13 05:00:00 16.6 6 Sudeste 13 Este 0 -- -- 74
2020-07-13 04:00:00 15.4 7 Sudeste 9 Sudeste 0 -- -- 77
2020-07-13 03:00:00 15.7 8 Sudeste 11 Sudeste 0 -- -- 76
2020-07-13 02:00:00 16.6 10 Sudeste 13 Sur 0 -- -- 72
2020-07-13 01:00:00 16.5 8 Sudeste 10 Sur 0 -- -- 72
2020-07-13 00:00:00 17.1 5 Sudeste 11 Sudeste 0 -- -- 69
2020-07-12 23:00:00 18.4 8 Sudeste 10 Sudeste 0 -- -- 68
2020-07-12 22:00:00 22.3 9 Este 20 Nordeste 0 -- -- 57
2020-07-12 21:00:00 25.6 13 Nordeste 24 Nordeste 0 -- -- 47
2020-07-12 20:00:00 27 5 Norte 15 Norte 0 -- -- 42
2020-07-12 19:00:00 25.4 13 Nordeste 28 Norte 0 -- -- 51
2020-07-12 18:00:00 27 13 Noroeste 26 Noroeste 0 -- -- 45
2020-07-12 17:00:00 25 13 Oeste 29 Oeste 0 -- -- 48
2020-07-12 16:00:00 24.6 17 Oeste 26 Oeste 0 -- -- 55
2020-07-12 15:00:00 26.2 15 Noroeste 26 Oeste 0 -- -- 42
2020-07-12 14:00:00 23.4 10 Oeste 18 Oeste 0 -- -- 53
2020-07-12 13:00:00 22.5 11 Noroeste 14 Noroeste 0 -- -- 60
2020-07-12 12:00:00 21.1 9 Sur 12 Sur 0 -- -- 55
2020-07-12 11:00:00 21 2 Sudeste 12 Oeste 0 -- -- 56
2020-07-12 10:00:00 20.9 6 Este 27 Este 0 -- -- 60
2020-07-12 09:00:00 19.6 21 Este 29 Este 0 -- -- 63
2020-07-12 08:00:00 17.9 14 Este 22 Este 0 -- -- 70
2020-07-12 07:00:00 16 13 Nordeste 27 Este 0 -- -- 77
2020-07-12 06:00:00 16 15 Este 21 Este 0 -- -- 76
2020-07-12 05:00:00 17.1 12 Este 23 Este 0 -- -- 71
2020-07-12 04:00:00 18.7 3 Este 26 Este 0 -- -- 62
2020-07-12 03:00:00 17.6 12 Este 22 Nordeste 0 -- -- 69
2020-07-12 02:00:00 18 6 Este 19 Norte 0 -- -- 66
2020-07-12 01:00:00 18.6 4 Noroeste 19 Sudoeste 0 -- -- 62
2020-07-12 00:00:00 18.5 7 Sudoeste 22 Oeste 0 -- -- 62
2020-07-11 23:00:00 18.9 5 Oeste 24 Sudoeste 0 -- -- 59
2020-07-11 22:00:00 19.8 21 Oeste 74 Sudoeste 0 -- -- 56
2020-07-11 21:00:00 26.4 12 Sudeste 17 Este 0 -- -- 37
2020-07-11 20:00:00 30.6 12 Este 24 Este 0 -- -- 29
2020-07-11 19:00:00 31.6 10 Este 21 Este 0 -- -- 26
2020-07-11 18:00:00 30.4 11 Este 20 Este 0 -- -- 28
2020-07-11 17:00:00 30.3 5 Norte 22 Este 0 -- -- 32
2020-07-11 16:00:00 31.3 4 Norte 15 Sudoeste 0 -- -- 30
2020-07-11 15:00:00 29.5 10 Noroeste 21 Noroeste 0 -- -- 35
2020-07-11 14:00:00 28.9 6 Noroeste 15 Norte 0 -- -- 38
2020-07-11 13:00:00 29.6 7 Norte 16 Noroeste 0 -- -- 36
2020-07-11 12:00:00 27.1 7 Noroeste 14 Noroeste 0 -- -- 43
2020-07-11 11:00:00 24.7 6 Oeste 11 Oeste 0 -- -- 51
2020-07-11 10:00:00 22.2 5 Noroeste 10 Noroeste 0 -- -- 57
2020-07-11 09:00:00 19.8 3 Noroeste 9 Sur 0 -- -- 62
2020-07-11 08:00:00 16.6 0 Calma 11 Noroeste 0 -- -- 62
2020-07-11 07:00:00 15.9 4 Sudeste 9 Sur 0 -- -- 64
2020-07-11 06:00:00 18 6 Sur 15 Este 0 -- -- 58
2020-07-11 05:00:00 20 12 Este 17 Este 0 -- -- 53
2020-07-11 04:00:00 20.9 9 Este 18 Este 0 -- -- 51
2020-07-11 03:00:00 22.5 12 Este 25 Este 0 -- -- 48
2020-07-11 02:00:00 23.2 19 Este 28 Este 0 -- -- 48
2020-07-11 01:00:00 22.7 15 Este 26 Sudeste 0 -- -- 48
2020-07-11 00:00:00 23.2 11 Este 17 Este 0 -- -- 40
2020-07-10 23:00:00 23.1 11 Este 15 Este 0 -- -- 42
2020-07-10 22:00:00 24.5 7 Este 13 Nordeste 0 -- -- 41
2020-07-10 21:00:00 28.7 7 Nordeste 21 Nordeste 0 -- -- 30
2020-07-10 20:00:00 29.8 13 Nordeste 21 Nordeste 0 -- -- 27
2020-07-10 19:00:00 30.4 12 Nordeste 26 Nordeste 0 -- -- 26
2020-07-10 18:00:00 30.5 8 Norte 26 Norte 0 -- -- 27
2020-07-10 17:00:00 30.2 8 Norte 30 Norte 0 -- -- 27
2020-07-10 16:00:00 30 6 Este 25 Nordeste 0 -- -- 27
2020-07-10 15:00:00 28.7 10 Noroeste 26 Noroeste 0 -- -- 31
2020-07-10 14:00:00 28.3 8 Nordeste 20 Noroeste 0 -- -- 33
2020-07-10 13:00:00 27.2 8 Norte 20 Nordeste 0 -- -- 35
2020-07-10 12:00:00 25.7 5 Nordeste 17 Nordeste 0 -- -- 38
2020-07-10 11:00:00 24.4 6 Norte 13 Nordeste 0 -- -- 45
2020-07-10 10:00:00 22.2 8 Nordeste 12 Nordeste 0 -- -- 53
2020-07-10 09:00:00 19.7 6 Nordeste 14 Sur 0 -- -- 65
2020-07-10 08:00:00 15.9 8 Sur 16 Sur 0 -- -- 77
2020-07-10 07:00:00 14.7 9 Sur 14 Sudeste 0 -- -- 80
2020-07-10 06:00:00 15.1 9 Sur 14 Sudeste 0 -- -- 77
2020-07-10 05:00:00 16 10 Sur 19 Sur 0 -- -- 74
2020-07-10 04:00:00 16.6 12 Sur 15 Sur 0 -- -- 71
2020-07-10 03:00:00 17.5 9 Sur 13 Sur 0 -- -- 65
2020-07-10 02:00:00 18.5 10 Sur 16 Sudoeste 0 -- -- 55
2020-07-10 01:00:00 19 12 Sudeste 17 Sudeste 0 -- -- 51
2020-07-10 00:00:00 20.3 14 Sudeste 23 Noroeste 0 -- -- 51
2020-07-09 23:00:00 23.6 9 Nordeste 28 Norte 0 -- -- 43
2020-07-09 22:00:00 25.1 9 Nordeste 29 Norte 0 -- -- 34
2020-07-09 21:00:00 28.4 13 Norte 22 Noroeste 0 -- -- 28
2020-07-09 20:00:00 29.8 13 Oeste 21 Noroeste 0 -- -- 22
2020-07-09 19:00:00 30.5 12 Noroeste 20 Noroeste 0 -- -- 22
2020-07-09 18:00:00 29.2 3 Sudeste 22 Oeste 0 -- -- 24
2020-07-09 17:00:00 30.5 9 Oeste 21 Noroeste 0 -- -- 25
2020-07-09 16:00:00 28.7 14 Nordeste 21 Nordeste 0 -- -- 27
2020-07-09 15:00:00 29.3 7 Este 22 Norte 0 -- -- 28
2020-07-09 14:00:00 28 10 Noroeste 25 Noroeste 0 -- -- 32
2020-07-09 13:00:00 27.7 8 Nordeste 18 Sudeste 0 -- -- 34
2020-07-09 12:00:00 26.3 4 Nordeste 13 Norte 0 -- -- 35
2020-07-09 11:00:00 24.6 6 Nordeste 14 Norte 0 -- -- 40
2020-07-09 10:00:00 22.1 12 Norte 30 Sudeste 0 -- -- 49
2020-07-09 09:00:00 22.3 8 Sudeste 18 Sudeste 0 -- -- 41
2020-07-09 08:00:00 18.7 2 Sudoeste 30 Sudeste 0 -- -- 52
2020-07-09 07:00:00 19.7 19 Sudeste 28 Sur 0 -- -- 50
2020-07-09 06:00:00 21.3 22 Sudeste 35 Sudeste 0 -- -- 38
2020-07-09 05:00:00 21.6 18 Sudeste 27 Sudeste 0 -- -- 32
2020-07-09 04:00:00 21.6 18 Sudeste 27 Sudeste 0 -- -- 40
2020-07-09 03:00:00 14.4 9 Sudeste 12 Sudeste 0 -- -- 71
2020-07-09 02:00:00 15.8 5 Sudeste 20 Sur 0 -- -- 66
2020-07-09 01:00:00 17.9 15 Sur 20 Sur 0 -- -- 61
2020-07-09 00:00:00 20.6 12 Sudoeste 19 Sudoeste 0 -- -- 58
2020-07-08 23:00:00 21.2 12 Sudoeste 20 Sudoeste 0 -- -- 46
2020-07-08 22:00:00 22 11 Sur 16 Sudoeste 0 -- -- 37
2020-07-08 21:00:00 28.2 10 Oeste 24 Sur 0 -- -- 24
2020-07-08 20:00:00 29.3 14 Sur 34 Sudoeste 0 -- -- 24
2020-07-08 19:00:00 30.8 16 Sur 33 Sudoeste 0 -- -- 28
2020-07-08 18:00:00 31.4 18 Sudoeste 36 Sur 0 -- -- 27
2020-07-08 17:00:00 31.7 19 Sur 39 Sudeste 0 -- -- 22
2020-07-08 16:00:00 31.5 17 Sur 35 Sur 0 -- -- 25
2020-07-08 15:00:00 30.8 19 Sudeste 45 Sudeste 0 -- -- 26
2020-07-08 14:00:00 30.1 28 Sudeste 45 Sudeste 0 -- -- 27
2020-07-08 13:00:00 30.1 18 Sudeste 36 Sudeste 0 -- -- 28
2020-07-08 12:00:00 29.2 24 Sudeste 36 Sur 0 -- -- 26
2020-07-08 11:00:00 28.4 21 Sudeste 40 Sudeste 0 -- -- 29
2020-07-08 10:00:00 28.1 18 Sudeste 35 Sudeste 0 -- -- 25
2020-07-08 09:00:00 23.5 8 Sur 18 Sur 0 -- -- 44
2020-07-08 08:00:00 19.9 14 Sur 22 Sur 0 -- -- 48
2020-07-08 07:00:00 19.5 18 Sur 23 Sudeste 0 -- -- 46
2020-07-08 06:00:00 19.5 12 Sudeste 18 Sur 0 -- -- 45
2020-07-08 05:00:00 20.1 12 Sur 17 Sur 0 -- -- 44
2020-07-08 04:00:00 21.6 8 Sudeste 22 Sudeste 0 -- -- 42
2020-07-08 03:00:00 20.4 12 Sur 17 Sur 0 -- -- 44
2020-07-08 02:00:00 22.4 4 Noroeste 15 Sur 0 -- -- 38
2020-07-08 01:00:00 21.9 12 Sur 17 Sur 0 -- -- 38
2020-07-08 00:00:00 23 11 Sur 18 Sudeste 0 -- -- 35